createdAt,value
2022-11-04T00:04:01.583Z,16.97
2022-11-04T00:09:06.099Z,14.77
2022-11-04T00:14:10.363Z,19.37
2022-11-04T00:19:14.646Z,16.70
2022-11-04T00:24:34.893Z,18.13
2022-11-04T00:29:37.655Z,18.17
2022-11-04T00:34:41.750Z,16.40
2022-11-04T00:39:44.487Z,20.53
2022-11-04T00:44:47.244Z,17.10
2022-11-04T00:49:51.601Z,19.63
2022-11-04T00:54:54.337Z,17.60
2022-11-04T00:59:57.127Z,19.93
2022-11-04T01:05:01.203Z,21.73
2022-11-04T01:10:04.277Z,22.17
2022-11-04T01:15:07.883Z,21.43
2022-11-04T01:20:13.860Z,25.40
2022-11-04T01:25:16.698Z,22.13
2022-11-04T01:30:19.596Z,22.97
2022-11-04T01:35:23.711Z,25.77
2022-11-04T01:40:26.577Z,25.60
2022-11-04T01:45:29.344Z,27.40
2022-11-04T01:50:35.518Z,29.60
2022-11-04T01:55:42.927Z,24.87
2022-11-04T02:00:45.986Z,30.80
2022-11-04T02:05:50.405Z,28.27
2022-11-04T02:10:59.005Z,29.87
2022-11-04T02:16:11.554Z,30.83
2022-11-04T02:21:54.691Z,29.83
2022-11-04T02:27:17.665Z,27.33
2022-11-04T02:32:28.426Z,28.57
2022-11-04T02:37:38.260Z,33.27
2022-11-04T02:42:54.050Z,33.90
2022-11-04T02:48:04.714Z,28.83
2022-11-04T02:53:15.333Z,31.57
2022-11-04T02:58:23.146Z,30.80
2022-11-04T03:03:29.486Z,30.73
2022-11-04T03:08:34.972Z,32.60
2022-11-04T03:13:42.213Z,31.20
2022-11-04T03:18:56.822Z,30.97
2022-11-04T03:23:59.759Z,33.23
2022-11-04T03:29:18.686Z,30.83
2022-11-04T03:34:22.839Z,35.97
2022-11-04T03:39:25.986Z,35.13
2022-11-04T03:44:30.568Z,29.23
2022-11-04T03:49:34.751Z,34.72
2022-11-04T03:54:37.601Z,32.47
2022-11-04T04:00:02.232Z,32.10
2022-11-04T04:05:16.004Z,30.17
2022-11-04T04:10:41.910Z,35.70
2022-11-04T04:15:48.626Z,35.00
2022-11-04T04:20:55.641Z,34.20
2022-11-04T04:26:20.931Z,33.50
2022-11-04T04:31:44.033Z,38.73
2022-11-04T04:36:52.661Z,34.20
2022-11-04T04:42:13.431Z,49.13
2022-11-04T04:47:20.043Z,66.97
2022-11-04T04:52:27.164Z,35.23
2022-11-04T04:57:29.981Z,50.97
2022-11-04T05:02:32.981Z,59.83
2022-11-04T05:07:37.135Z,54.10
2022-11-04T05:12:58.993Z,58.60
2022-11-04T05:18:03.475Z,59.23
2022-11-04T05:23:07.976Z,61.40
2022-11-04T05:28:10.955Z,63.60
2022-11-04T05:33:14.005Z,62.83
2022-11-04T05:38:18.099Z,68.20
2022-11-04T05:43:20.973Z,77.70
2022-11-04T05:48:23.697Z,76.27
2022-11-04T05:58:35.968Z,75.33
2022-11-04T06:03:38.769Z,69.47
2022-11-04T06:08:45.336Z,76.53
2022-11-04T06:13:48.374Z,68.73
2022-11-04T06:18:51.543Z,68.77
2022-11-04T06:23:57.708Z,69.47
2022-11-04T06:29:00.460Z,70.50
2022-11-04T06:34:03.228Z,78.17
2022-11-04T06:39:07.389Z,63.87
2022-11-04T06:44:10.213Z,61.03
2022-11-04T06:49:16.008Z,61.80
2022-11-04T06:54:20.496Z,60.37
2022-11-04T06:59:23.986Z,54.87
2022-11-04T07:04:26.772Z,44.17
2022-11-04T07:09:30.865Z,47.37
2022-11-04T07:14:33.780Z,50.50
2022-11-04T07:19:36.586Z,44.73
2022-11-04T07:24:40.665Z,40.47
2022-11-04T07:29:43.460Z,37.03
2022-11-04T07:34:46.204Z,28.70
2022-11-04T07:39:50.293Z,28.15
2022-11-04T07:44:53.036Z,29.20
2022-11-04T07:49:55.828Z,26.42
2022-11-04T07:55:00.002Z,25.30
2022-11-04T08:00:03.303Z,23.45
2022-11-04T08:05:06.833Z,26.30
2022-11-04T08:10:11.427Z,25.95
2022-11-04T08:15:14.190Z,30.13
2022-11-04T08:20:17.557Z,31.13
2022-11-04T08:25:21.637Z,23.83
2022-11-04T08:30:24.455Z,22.88
2022-11-04T08:35:27.289Z,30.33
2022-11-04T08:40:31.373Z,28.20
2022-11-04T08:45:34.149Z,19.90
2022-11-04T08:50:37.188Z,18.40
2022-11-04T08:55:41.278Z,19.65
2022-11-04T09:00:44.212Z,16.10
2022-11-04T09:05:49.081Z,16.15
2022-11-04T09:10:53.447Z,16.50
2022-11-04T09:15:56.183Z,11.00
2022-11-04T09:21:01.390Z,11.43
2022-11-04T09:26:11.107Z,10.55
2022-11-04T09:31:15.885Z,8.55
2022-11-04T09:36:18.941Z,10.10
2022-11-04T09:41:45.823Z,10.60
2022-11-04T09:46:50.396Z,8.68
2022-11-04T09:51:55.850Z,11.13
2022-11-04T09:57:04.652Z,8.38
2022-11-04T10:02:43.199Z,12.20
2022-11-04T10:07:59.166Z,9.98
2022-11-04T10:13:16.669Z,13.60
2022-11-04T10:18:30.434Z,12.40
2022-11-04T10:23:35.335Z,16.10
2022-11-04T10:28:43.647Z,14.57
2022-11-04T10:33:51.557Z,13.57
2022-11-04T10:38:56.061Z,14.03
2022-11-04T10:44:04.561Z,12.93
2022-11-04T10:49:29.945Z,10.87
2022-11-04T10:54:37.407Z,11.83
2022-11-04T10:59:52.104Z,12.27
2022-11-04T11:05:15.954Z,10.17
2022-11-04T11:10:21.511Z,11.87
2022-11-04T11:15:32.714Z,10.70
2022-11-04T11:20:38.230Z,10.80
2022-11-04T11:25:45.312Z,12.73
2022-11-04T11:30:59.009Z,10.07
2022-11-04T11:36:06.815Z,10.30
2022-11-04T11:41:28.990Z,10.40
2022-11-04T11:46:36.999Z,6.90
2022-11-04T11:51:40.595Z,8.47
2022-11-04T11:57:12.040Z,9.07
2022-11-04T12:02:26.490Z,8.63
2022-11-04T12:13:23.794Z,6.67
2022-11-04T12:18:51.394Z,8.33
2022-11-04T12:23:57.164Z,7.20
2022-11-04T12:29:16.655Z,9.17
2022-11-04T12:34:39.864Z,6.23
2022-11-04T12:39:57.949Z,4.83
2022-11-04T12:45:19.323Z,4.23
2022-11-04T12:50:43.535Z,8.10
2022-11-04T12:55:56.837Z,8.47
2022-11-04T13:01:05.047Z,5.83
2022-11-04T13:06:17.376Z,6.80
2022-11-04T13:11:25.867Z,7.70
2022-11-04T13:16:32.576Z,6.70
2022-11-04T13:21:39.172Z,8.30
2022-11-04T13:26:41.978Z,7.53
2022-11-04T13:31:50.842Z,8.83
2022-11-04T13:37:07.866Z,10.43
2022-11-04T13:42:42.852Z,10.43
2022-11-04T13:47:50.663Z,9.33
2022-11-04T13:52:55.141Z,9.50
2022-11-04T13:58:00.637Z,8.50
2022-11-04T14:03:40.998Z,9.23
2022-11-04T14:09:30.459Z,9.73
2022-11-04T14:14:33.240Z,10.63
2022-11-04T14:20:00.740Z,11.00
2022-11-04T14:25:22.805Z,9.03
2022-11-04T14:30:45.119Z,9.27
2022-11-04T14:35:49.503Z,9.30
2022-11-04T14:41:12.004Z,11.37
2022-11-04T14:46:22.554Z,9.47
2022-11-04T14:51:29.090Z,13.37
2022-11-04T14:56:32.512Z,12.00
2022-11-04T15:01:40.890Z,13.93
2022-11-04T15:06:55.334Z,12.83
2022-11-04T15:12:24.404Z,13.40
2022-11-04T15:17:30.604Z,17.33
2022-11-04T15:22:35.013Z,12.03
2022-11-04T15:27:38.336Z,10.70
2022-11-04T15:32:41.240Z,14.47
2022-11-04T15:37:46.214Z,15.87
2022-11-04T15:42:50.334Z,11.90
2022-11-04T15:48:24.015Z,15.37
2022-11-04T15:53:28.178Z,15.60
2022-11-04T15:58:34.898Z,16.23
2022-11-04T16:03:37.745Z,14.77
2022-11-04T16:08:41.902Z,20.03
2022-11-04T16:13:46.117Z,13.67
2022-11-04T16:18:53.587Z,14.57
2022-11-04T16:24:01.823Z,13.27
2022-11-04T16:29:09.268Z,16.03
2022-11-04T16:34:13.590Z,19.23
2022-11-04T16:39:17.768Z,15.40
2022-11-04T16:44:22.789Z,16.87
2022-11-04T16:49:28.258Z,17.83
2022-11-04T16:54:44.708Z,18.03
2022-11-04T16:59:57.626Z,16.90
2022-11-04T17:05:01.279Z,16.40
2022-11-04T17:10:15.394Z,16.03
2022-11-04T17:15:36.554Z,16.97
2022-11-04T17:20:41.716Z,16.17
2022-11-04T17:31:32.153Z,17.43
2022-11-04T17:36:43.473Z,14.07
2022-11-04T17:42:07.246Z,14.50
2022-11-04T17:47:10.506Z,19.57
2022-11-04T17:52:13.349Z,12.77
2022-11-04T17:57:17.473Z,12.53
2022-11-04T18:02:20.357Z,13.67
2022-11-04T18:07:23.334Z,16.00
2022-11-04T18:12:41.575Z,14.87
2022-11-04T18:17:46.259Z,16.87
2022-11-04T18:22:49.048Z,16.13
2022-11-04T18:27:53.170Z,17.73
2022-11-04T18:32:55.947Z,14.93
2022-11-04T18:37:58.747Z,18.63
2022-11-04T18:43:08.674Z,17.07
2022-11-04T18:48:12.346Z,16.53
2022-11-04T18:53:15.426Z,22.03
2022-11-04T18:58:19.626Z,20.27
2022-11-04T19:03:23.452Z,19.10
2022-11-04T19:08:26.233Z,18.43
2022-11-04T19:13:30.406Z,19.43
2022-11-04T19:18:33.192Z,21.30
2022-11-04T19:23:36.366Z,20.13
2022-11-04T19:28:48.105Z,21.90
2022-11-04T19:33:51.883Z,22.17
2022-11-04T19:38:58.426Z,22.53
2022-11-04T19:50:09.430Z,27.70
2022-11-04T19:55:12.277Z,22.13
2022-11-04T20:00:16.377Z,20.97
2022-11-04T20:05:24.909Z,30.80
2022-11-04T20:10:44.317Z,18.23
2022-11-04T20:52:29.214Z,21.40
2022-11-04T20:58:38.814Z,17.00
2022-11-04T21:22:12.099Z,16.60
2022-11-04T21:27:14.880Z,18.37
2022-11-04T21:32:17.653Z,17.53
2022-11-04T21:37:21.735Z,19.33
2022-11-04T21:42:24.544Z,22.37
2022-11-04T21:47:27.323Z,19.50
2022-11-04T21:52:31.410Z,20.60
2022-11-04T21:57:36.505Z,24.53
2022-11-04T22:02:43.420Z,37.23
2022-11-04T22:08:05.195Z,24.23
2022-11-04T22:13:08.256Z,17.97
2022-11-04T22:18:11.285Z,19.23
2022-11-04T22:23:15.389Z,25.30
2022-11-04T22:28:19.184Z,22.37
2022-11-04T22:33:23.498Z,22.00
2022-11-04T22:38:29.262Z,20.70
2022-11-04T22:43:32.524Z,22.07
2022-11-04T22:48:35.681Z,20.00
2022-11-04T22:53:40.624Z,24.67
2022-11-04T22:58:43.871Z,21.30
2022-11-04T23:03:46.726Z,27.07
2022-11-04T23:08:59.630Z,23.17
2022-11-04T23:14:21.300Z,23.57
2022-11-04T23:19:29.778Z,25.93
2022-11-04T23:24:52.355Z,20.63
2022-11-04T23:30:12.811Z,24.03
2022-11-04T23:35:33.335Z,20.30
2022-11-04T23:40:37.475Z,18.60
2022-11-04T23:45:57.739Z,25.17
2022-11-04T23:51:19.133Z,24.40
2022-11-04T23:56:41.049Z,20.07
